Time;durP1;ratioP1;P1;durP2;ratioP2;P2;SDS_P1;SDS_P2;PMS_P1;PMS_P2;Temp;Humidity;BMP_temperature;BMP_pressure;BME280_temperature;BME280_humidity;BME280_pressure;Samples;Min_cycle;Max_cycle;Signal;HPM_P1;HPM_P2
2022/11/29 00:00:36;;;;;;;32.42;13.80;;;;;;;;;;5040118;28;20032;-84
2022/11/29 00:03:02;;;;;;;28.42;13.70;;;;;;;;;;5057729;28;20111;-86
2022/11/29 00:05:28;;;;;;;30.85;13.00;;;;;;;;;;5057506;28;20086;-86
2022/11/29 00:07:55;;;;;;;25.83;12.45;;;;;;;;;;5039799;28;20029;-85
2022/11/29 00:10:21;;;;;;;25.67;13.00;;;;;;;;;;5047683;28;20021;-85
2022/11/29 00:12:47;;;;;;;29.40;12.30;;;;;;;;;;5059900;28;20329;-85
2022/11/29 00:15:13;;;;;;;25.23;11.55;;;;;;;;;;5051021;28;20022;-86
2022/11/29 00:17:39;;;;;;;23.80;10.90;;;;;;;;;;5039800;28;20047;-84
2022/11/29 00:20:05;;;;;;;29.13;13.95;;;;;;;;;;5072236;28;20124;-85
2022/11/29 00:22:31;;;;;;;27.13;13.90;;;;;;;;;;5080242;28;20048;-84
2022/11/29 00:24:57;;;;;;;27.80;11.77;;;;;;;;;;5070601;28;20403;-84
2022/11/29 00:27:23;;;;;;;24.77;12.13;;;;;;;;;;5045801;28;20120;-86
2022/11/29 00:29:49;;;;;;;25.02;12.15;;;;;;;;;;5038965;28;20438;-85
2022/11/29 00:32:15;;;;;;;27.30;12.02;;;;;;;;;;5039287;28;20021;-85
2022/11/29 00:34:41;;;;;;;22.10;12.02;;;;;;;;;;5038363;28;20076;-86
2022/11/29 00:37:08;;;;;;;28.42;13.60;;;;;;;;;;5040068;28;20025;-86
2022/11/29 00:39:34;;;;;;;28.40;12.32;;;;;;;;;;5042679;28;20586;-86
2022/11/29 00:42:00;;;;;;;26.98;13.02;;;;;;;;;;5039227;28;20037;-86
2022/11/29 00:44:26;;;;;;;28.92;11.88;;;;;;;;;;5043797;28;20025;-85
2022/11/29 00:46:52;;;;;;;29.00;13.70;;;;;;;;;;5059449;28;20029;-86
2022/11/29 00:49:18;;;;;;;24.08;11.93;;;;;;;;;;5060053;28;20060;-84
2022/11/29 00:51:44;;;;;;;22.38;12.18;;;;;;;;;;5054130;28;20045;-85
2022/11/29 00:54:10;;;;;;;27.02;13.05;;;;;;;;;;5037357;28;20026;-85
2022/11/29 00:56:36;;;;;;;27.80;12.13;;;;;;;;;;5058822;28;20474;-84
2022/11/29 00:59:02;;;;;;;28.10;12.40;;;;;;;;;;5056791;28;20055;-86
2022/11/29 01:01:28;;;;;;;23.50;12.85;;;;;;;;;;5039955;28;20026;-85
2022/11/29 01:03:54;;;;;;;25.35;11.68;;;;;;;;;;5038973;28;20021;-85
2022/11/29 01:06:20;;;;;;;26.33;13.30;;;;;;;;;;5039831;28;20049;-84
2022/11/29 01:08:47;;;;;;;24.67;11.60;;;;;;;;;;5040796;28;20116;-86
2022/11/29 01:11:23;;;;;;;24.48;12.23;;;;;;;;;;5040805;28;20049;-86
2022/11/29 01:13:50;;;;;;;24.50;12.90;;;;;;;;;;5037958;28;20124;-85
2022/11/29 01:16:17;;;;;;;22.67;12.43;;;;;;;;;;5038259;28;20025;-86
2022/11/29 01:18:43;;;;;;;29.77;12.40;;;;;;;;;;5050246;28;20107;-85
2022/11/29 01:21:14;;;;;;;27.65;12.27;;;;;;;;;;5080133;28;20062;-85
2022/11/29 01:23:41;;;;;;;25.52;12.20;;;;;;;;;;5037663;28;20033;-86
2022/11/29 01:26:08;;;;;;;27.90;12.63;;;;;;;;;;5052921;28;20021;-86
2022/11/29 01:28:37;;;;;;;28.25;11.70;;;;;;;;;;5056885;28;20039;-84
2022/11/29 01:31:10;;;;;;;26.98;12.25;;;;;;;;;;5052751;28;20097;-86
2022/11/29 01:33:38;;;;;;;22.50;11.18;;;;;;;;;;5078299;28;20027;-86
2022/11/29 01:36:04;;;;;;;24.40;11.98;;;;;;;;;;5078781;28;20027;-84
2022/11/29 01:38:31;;;;;;;24.73;11.88;;;;;;;;;;5055459;28;20411;-85
2022/11/29 01:40:57;;;;;;;23.75;11.45;;;;;;;;;;5042161;28;20048;-86
2022/11/29 01:43:23;;;;;;;23.38;11.85;;;;;;;;;;5066875;28;20029;-87
2022/11/29 01:45:49;;;;;;;24.80;10.95;;;;;;;;;;5062184;28;20108;-84
2022/11/29 01:48:16;;;;;;;24.20;11.35;;;;;;;;;;5058176;28;20028;-85
2022/11/29 01:50:42;;;;;;;23.27;11.63;;;;;;;;;;5056857;28;20021;-85
2022/11/29 01:53:09;;;;;;;21.88;10.55;;;;;;;;;;5038569;28;20033;-86
2022/11/29 01:55:36;;;;;;;23.42;10.75;;;;;;;;;;5056537;28;20021;-86
2022/11/29 01:58:03;;;;;;;24.05;11.25;;;;;;;;;;5045846;28;20660;-85
2022/11/29 02:00:29;;;;;;;24.48;11.52;;;;;;;;;;5037715;28;20025;-85
2022/11/29 02:02:58;;;;;;;24.52;11.43;;;;;;;;;;5037061;28;20029;-85
2022/11/29 02:05:24;;;;;;;25.15;12.45;;;;;;;;;;5038696;28;20032;-85
2022/11/29 02:07:52;;;;;;;31.13;14.35;;;;;;;;;;5037027;28;20056;-86
2022/11/29 02:10:19;;;;;;;27.40;13.02;;;;;;;;;;5038917;28;20044;-85
2022/11/29 02:13:09;;;;;;;25.73;11.88;;;;;;;;;;5041166;28;20033;-85
2022/11/29 02:15:41;;;;;;;26.75;12.65;;;;;;;;;;5037540;28;20022;-84
2022/11/29 02:18:34;;;;;;;26.13;13.63;;;;;;;;;;5037145;28;20021;-86
2022/11/29 02:21:02;;;;;;;30.95;14.32;;;;;;;;;;5042428;28;20039;-84
2022/11/29 02:23:35;;;;;;;31.85;14.13;;;;;;;;;;5037523;28;20086;-86
2022/11/29 02:26:01;;;;;;;29.10;12.70;;;;;;;;;;5038715;28;20434;-85
2022/11/29 02:28:39;;;;;;;26.42;13.25;;;;;;;;;;5037078;28;20025;-85
2022/11/29 02:31:24;;;;;;;28.00;13.25;;;;;;;;;;5040671;28;20026;-86
2022/11/29 02:33:57;;;;;;;22.13;11.50;;;;;;;;;;5052325;28;20028;-85
2022/11/29 02:36:42;;;;;;;25.70;12.10;;;;;;;;;;5051414;28;20021;-85
2022/11/29 02:39:17;;;;;;;26.75;14.15;;;;;;;;;;5056507;28;20067;-85
2022/11/29 02:41:43;;;;;;;25.85;11.50;;;;;;;;;;5048200;28;20053;-84
2022/11/29 02:44:15;;;;;;;29.80;13.63;;;;;;;;;;5039399;28;20029;-85
2022/11/29 02:46:53;;;;;;;33.05;12.60;;;;;;;;;;5061288;28;20128;-86
2022/11/29 02:49:38;;;;;;;26.63;12.30;;;;;;;;;;5063802;28;20059;-85
2022/11/29 02:52:08;;;;;;;31.30;12.90;;;;;;;;;;5065158;28;20025;-85
2022/11/29 02:54:40;;;;;;;24.55;12.88;;;;;;;;;;5056539;28;20055;-86
2022/11/29 02:57:09;;;;;;;26.08;13.57;;;;;;;;;;5053907;28;20025;-85
2022/11/29 02:59:38;;;;;;;26.65;12.40;;;;;;;;;;5045038;28;20022;-86
2022/11/29 03:02:07;;;;;;;28.77;14.40;;;;;;;;;;5037870;28;20045;-84
2022/11/29 03:04:42;;;;;;;27.77;13.82;;;;;;;;;;5038384;28;20109;-86
2022/11/29 03:07:27;;;;;;;31.80;13.27;;;;;;;;;;5039809;28;20068;-87
2022/11/29 03:10:32;;;;;;;30.13;13.82;;;;;;;;;;5048728;28;20033;-85
2022/11/29 03:12:58;;;;;;;31.83;13.43;;;;;;;;;;4956560;28;20036;-86
2022/11/29 03:15:24;;;;;;;30.45;14.68;;;;;;;;;;4956369;29;20031;-87
2022/11/29 03:18:13;;;;;;;30.58;14.82;;;;;;;;;;4957111;29;20036;-85
2022/11/29 03:20:57;;;;;;;26.75;13.20;;;;;;;;;;4942536;29;20063;-85
2022/11/29 03:23:27;;;;;;;31.25;13.50;;;;;;;;;;4941741;29;20027;-83
2022/11/29 03:25:56;;;;;;;28.08;14.00;;;;;;;;;;4941367;29;20027;-86
2022/11/29 03:28:34;;;;;;;27.40;12.93;;;;;;;;;;4941846;29;20095;-83
2022/11/29 03:31:00;;;;;;;24.05;13.75;;;;;;;;;;4945445;29;20106;-84
2022/11/29 03:33:49;;;;;;;29.83;16.08;;;;;;;;;;4969001;29;20144;-85
2022/11/29 03:36:27;;;;;;;33.45;14.85;;;;;;;;;;4951853;29;20047;-83
2022/11/29 03:38:56;;;;;;;25.80;14.23;;;;;;;;;;4952690;28;20075;-84
2022/11/29 03:41:28;;;;;;;29.88;14.43;;;;;;;;;;4950433;29;20035;-85
2022/11/29 03:43:57;;;;;;;29.10;15.07;;;;;;;;;;4999250;28;20076;-85
2022/11/29 03:46:42;;;;;;;28.05;13.35;;;;;;;;;;5048934;28;20041;-85
2022/11/29 03:49:20;;;;;;;29.98;14.18;;;;;;;;;;5061380;28;20021;-84
2022/11/29 03:52:03;;;;;;;30.50;14.35;;;;;;;;;;5061116;28;20017;-85
2022/11/29 03:54:47;;;;;;;28.88;15.25;;;;;;;;;;5047533;28;20125;-85
2022/11/29 03:57:17;;;;;;;36.30;14.43;;;;;;;;;;5042463;28;20531;-85
2022/11/29 03:59:49;;;;;;;27.88;14.63;;;;;;;;;;5041386;28;20510;-84
2022/11/29 04:02:30;;;;;;;34.67;14.90;;;;;;;;;;5056326;28;20035;-84
2022/11/29 04:05:05;;;;;;;32.88;14.98;;;;;;;;;;5039621;28;20064;-85
2022/11/29 04:07:50;;;;;;;24.63;13.48;;;;;;;;;;5045494;28;20088;-85
2022/11/29 04:10:33;;;;;;;33.35;14.32;;;;;;;;;;5048936;28;20093;-84
2022/11/29 04:13:00;;;;;;;32.80;14.95;;;;;;;;;;5057179;28;20032;-83
2022/11/29 04:15:29;;;;;;;31.02;14.50;;;;;;;;;;5048732;28;20018;-84
2022/11/29 04:18:07;;;;;;;33.95;15.98;;;;;;;;;;5055657;28;20028;-83
2022/11/29 04:20:36;;;;;;;30.58;14.73;;;;;;;;;;5040690;28;20029;-84
2022/11/29 04:23:08;;;;;;;32.88;15.65;;;;;;;;;;5040890;28;20021;-83
2022/11/29 04:25:53;;;;;;;31.02;15.30;;;;;;;;;;5055435;28;20498;-84
2022/11/29 04:28:38;;;;;;;32.10;15.50;;;;;;;;;;5044895;28;20059;-85
2022/11/29 04:31:15;;;;;;;34.47;16.25;;;;;;;;;;5060070;28;20028;-85
2022/11/29 04:33:55;;;;;;;28.60;14.35;;;;;;;;;;5055430;28;20025;-85
2022/11/29 04:36:24;;;;;;;32.92;14.77;;;;;;;;;;5047651;28;20025;-85
2022/11/29 04:38:53;;;;;;;31.30;15.70;;;;;;;;;;5053812;28;20029;-83
2022/11/29 04:41:31;;;;;;;32.45;17.20;;;;;;;;;;5039286;28;20041;-85
2022/11/29 04:44:00;;;;;;;38.35;16.30;;;;;;;;;;5038025;28;20376;-84
2022/11/29 04:46:26;;;;;;;36.47;18.73;;;;;;;;;;5040556;28;20046;-85
2022/11/29 04:49:11;;;;;;;34.70;17.27;;;;;;;;;;5038621;28;20515;-83
2022/11/29 04:51:56;;;;;;;38.03;18.00;;;;;;;;;;5053027;28;20029;-85
2022/11/29 04:54:23;;;;;;;37.47;17.98;;;;;;;;;;5048179;28;20017;-84
2022/11/29 04:56:56;;;;;;;33.80;14.98;;;;;;;;;;5051522;28;20495;-85
2022/11/29 04:59:30;;;;;;;34.92;17.45;;;;;;;;;;5047920;28;20020;-84
2022/11/29 05:02:14;;;;;;;35.45;17.75;;;;;;;;;;5059353;28;20036;-84
2022/11/29 05:05:00;;;;;;;40.25;17.48;;;;;;;;;;5039354;28;20033;-85
2022/11/29 05:07:26;;;;;;;33.75;17.48;;;;;;;;;;5041914;28;20484;-85
2022/11/29 05:10:11;;;;;;;43.20;17.00;;;;;;;;;;5043160;28;20036;-84
2022/11/29 05:12:55;;;;;;;39.25;16.90;;;;;;;;;;5041071;28;20032;-85
2022/11/29 05:15:40;;;;;;;33.70;16.45;;;;;;;;;;5042804;28;20028;-83
2022/11/29 05:18:26;;;;;;;32.50;15.40;;;;;;;;;;5042084;28;20096;-85
2022/11/29 05:20:59;;;;;;;37.92;16.65;;;;;;;;;;5056549;28;20025;-84
2022/11/29 05:23:32;;;;;;;37.55;17.35;;;;;;;;;;5046731;28;20026;-85
2022/11/29 05:26:02;;;;;;;34.75;16.05;;;;;;;;;;5044075;28;20029;-84
2022/11/29 05:28:46;;;;;;;33.83;16.50;;;;;;;;;;5039398;28;20024;-84
2022/11/29 05:31:24;;;;;;;29.88;15.70;;;;;;;;;;5044815;28;20025;-84
2022/11/29 05:34:06;;;;;;;31.38;15.63;;;;;;;;;;5045839;28;20043;-86
2022/11/29 05:36:50;;;;;;;35.45;16.75;;;;;;;;;;5047979;28;20065;-84
2022/11/29 05:39:32;;;;;;;35.38;15.73;;;;;;;;;;5040094;28;20030;-85
2022/11/29 05:41:58;;;;;;;37.35;17.00;;;;;;;;;;5039427;28;20071;-82
2022/11/29 05:44:24;;;;;;;35.97;15.07;;;;;;;;;;5049311;28;20116;-84
2022/11/29 05:46:58;;;;;;;31.55;16.30;;;;;;;;;;5052600;28;20039;-84
2022/11/29 05:49:27;;;;;;;35.10;17.23;;;;;;;;;;5044024;28;20057;-84
2022/11/29 05:52:18;;;;;;;33.15;17.25;;;;;;;;;;5046146;28;20053;-85
2022/11/29 05:55:04;;;;;;;33.58;16.80;;;;;;;;;;5041264;28;20104;-83
2022/11/29 05:57:30;;;;;;;32.67;17.60;;;;;;;;;;4954580;28;20047;-86
2022/11/29 05:59:57;;;;;;;30.30;15.25;;;;;;;;;;4948021;29;20190;-86
2022/11/29 06:02:25;;;;;;;36.38;16.73;;;;;;;;;;4969210;28;20057;-84
2022/11/29 06:05:12;;;;;;;41.35;18.23;;;;;;;;;;4953151;28;20035;-85
2022/11/29 06:07:44;;;;;;;34.90;16.95;;;;;;;;;;4952966;28;20121;-85
2022/11/29 06:10:10;;;;;;;;;;;;;;;;;;4959620;28;20023;-85
2022/11/29 06:12:37;;;;;;;34.75;16.38;;;;;;;;;;4963234;28;19916;-84
2022/11/29 06:15:22;;;;;;;31.35;15.35;;;;;;;;;;4965040;28;20039;-85
2022/11/29 06:17:57;;;;;;;37.10;17.52;;;;;;;;;;4970132;28;20031;-83
2022/11/29 06:20:31;;;;;;;34.28;17.60;;;;;;;;;;4963338;28;20027;-84
2022/11/29 06:23:15;;;;;;;37.67;16.92;;;;;;;;;;4959414;28;20043;-84
2022/11/29 06:25:59;;;;;;;35.88;16.98;;;;;;;;;;4963847;28;20508;-84
2022/11/29 06:28:37;;;;;;;34.35;16.33;;;;;;;;;;4972689;28;20051;-85
2022/11/29 06:31:15;;;;;;;34.72;16.95;;;;;;;;;;4959937;28;20527;-84
2022/11/29 06:33:53;;;;;;;34.67;16.98;;;;;;;;;;4978882;28;20054;-82
2022/11/29 06:36:23;;;;;;;34.00;18.10;;;;;;;;;;5041066;28;20022;-85
2022/11/29 06:38:49;;;;;;;32.78;15.32;;;;;;;;;;5046034;28;20033;-84
2022/11/29 06:41:18;;;;;;;34.47;17.55;;;;;;;;;;5046451;28;20029;-85
2022/11/29 06:43:44;;;;;;;34.75;17.55;;;;;;;;;;5049544;28;20423;-84
2022/11/29 06:46:22;;;;;;;29.42;17.17;;;;;;;;;;5055513;28;20045;-84
2022/11/29 06:48:57;;;;;;;32.00;15.77;;;;;;;;;;5058186;28;20036;-84
2022/11/29 06:51:46;;;;;;;27.30;15.73;;;;;;;;;;5057099;28;20025;-86
2022/11/29 06:54:12;;;;;;;42.42;18.23;;;;;;;;;;5056151;28;20552;-85
2022/11/29 06:56:51;;;;;;;34.70;15.93;;;;;;;;;;5042559;28;20037;-85
2022/11/29 06:59:17;;;;;;;35.83;14.70;;;;;;;;;;5040151;28;20030;-84
2022/11/29 07:01:49;;;;;;;33.78;17.70;;;;;;;;;;5040006;28;20033;-83
2022/11/29 07:04:38;;;;;;;31.95;15.73;;;;;;;;;;5037369;28;20028;-84
2022/11/29 07:07:08;;;;;;;32.05;15.52;;;;;;;;;;5058362;28;20086;-84
2022/11/29 07:09:34;;;;;;;34.53;16.65;;;;;;;;;;5061441;28;20029;-85
2022/11/29 07:12:00;;;;;;;27.95;15.85;;;;;;;;;;5064045;28;20048;-85
2022/11/29 07:14:26;;;;;;;29.38;15.35;;;;;;;;;;5061746;28;20470;-83
2022/11/29 07:17:11;;;;;;;29.95;15.40;;;;;;;;;;5041393;28;20096;-84
2022/11/29 07:19:37;;;;;;;25.02;13.68;;;;;;;;;;5048837;28;20041;-85
2022/11/29 07:22:26;;;;;;;28.25;15.57;;;;;;;;;;5055066;28;20036;-85
2022/11/29 07:25:02;;;;;;;36.20;15.75;;;;;;;;;;5055996;28;20056;-84
2022/11/29 07:27:46;;;;;;;30.85;16.45;;;;;;;;;;5064757;28;20062;-85
2022/11/29 07:30:15;;;;;;;36.08;16.77;;;;;;;;;;5070088;28;20021;-85
2022/11/29 07:32:41;;;;;;;36.75;17.88;;;;;;;;;;5061237;28;20029;-85
2022/11/29 07:35:21;;;;;;;28.98;15.63;;;;;;;;;;5043770;28;20048;-84
2022/11/29 07:37:47;;;;;;;33.72;16.13;;;;;;;;;;5055448;28;20017;-86
2022/11/29 07:40:15;;;;;;;31.33;14.25;;;;;;;;;;5053003;28;20112;-83
2022/11/29 07:42:48;;;;;;;27.20;14.35;;;;;;;;;;5058287;28;20044;-86
2022/11/29 07:45:17;;;;;;;32.25;17.00;;;;;;;;;;5053952;28;20053;-85
2022/11/29 07:47:43;;;;;;;30.05;15.75;;;;;;;;;;5048088;28;20024;-85
2022/11/29 07:50:09;;;;;;;30.58;14.77;;;;;;;;;;5048862;28;20030;-86
2022/11/29 07:52:35;;;;;;;32.83;15.88;;;;;;;;;;5043351;28;20026;-85
2022/11/29 07:55:02;;;;;;;31.77;15.80;;;;;;;;;;5048231;28;20029;-85
2022/11/29 07:57:28;;;;;;;27.65;13.80;;;;;;;;;;5058454;28;20029;-84
2022/11/29 07:59:54;;;;;;;28.83;14.40;;;;;;;;;;5044457;28;20539;-85
2022/11/29 08:02:30;;;;;;;31.25;15.20;;;;;;;;;;5059981;28;20067;-84
2022/11/29 08:04:56;;;;;;;28.33;14.20;;;;;;;;;;5061714;28;20021;-83
2022/11/29 08:07:22;;;;;;;33.65;16.42;;;;;;;;;;5054611;28;20033;-85
2022/11/29 08:09:48;;;;;;;31.58;15.20;;;;;;;;;;5050017;28;20072;-85
2022/11/29 08:12:14;;;;;;;27.25;14.70;;;;;;;;;;5061257;28;20025;-84
2022/11/29 08:14:40;;;;;;;29.10;14.73;;;;;;;;;;5044708;28;20029;-85
2022/11/29 08:17:06;;;;;;;28.38;14.80;;;;;;;;;;5042376;28;20503;-83
2022/11/29 08:19:32;;;;;;;30.48;14.85;;;;;;;;;;5050293;28;20031;-82
2022/11/29 08:21:58;;;;;;;27.67;14.65;;;;;;;;;;5059748;28;20060;-83
2022/11/29 08:24:25;;;;;;;28.95;14.27;;;;;;;;;;5055565;28;20021;-82
2022/11/29 08:26:51;;;;;;;27.77;14.82;;;;;;;;;;5045086;28;20028;-85
2022/11/29 08:29:17;;;;;;;28.58;14.70;;;;;;;;;;5050105;28;20022;-83
2022/11/29 08:31:44;;;;;;;27.17;12.70;;;;;;;;;;5048594;28;20032;-85
2022/11/29 08:34:10;;;;;;;32.15;14.88;;;;;;;;;;5058457;28;20055;-85
2022/11/29 08:36:36;;;;;;;26.23;13.18;;;;;;;;;;5061283;28;20040;-85
2022/11/29 08:39:03;;;;;;;23.90;12.15;;;;;;;;;;5053639;28;20120;-83
2022/11/29 08:41:29;;;;;;;22.98;12.68;;;;;;;;;;5043259;28;20063;-83
2022/11/29 08:43:55;;;;;;;25.77;13.15;;;;;;;;;;5041592;28;20057;-84
2022/11/29 08:47:34;;;;;;;25.63;13.73;;;;;;;;;;5045055;28;20044;-85
2022/11/29 08:49:07;;;;;;;23.58;12.57;;;;;;;;;;5061039;28;20041;-84
2022/11/29 08:51:33;;;;;;;27.35;13.98;;;;;;;;;;5061891;28;20336;-85
2022/11/29 08:54:00;;;;;;;26.45;12.38;;;;;;;;;;5058688;28;20055;-85
2022/11/29 08:56:26;;;;;;;26.55;13.07;;;;;;;;;;5047460;28;20021;-85
2022/11/29 08:58:52;;;;;;;27.10;14.77;;;;;;;;;;5040476;28;20025;-85
2022/11/29 09:01:19;;;;;;;28.77;13.95;;;;;;;;;;5042518;28;20147;-83
2022/11/29 09:03:58;;;;;;;25.58;14.13;;;;;;;;;;5041774;28;20051;-84
2022/11/29 09:06:24;;;;;;;23.73;11.90;;;;;;;;;;5048207;28;20107;-83
2022/11/29 09:08:50;;;;;;;26.20;15.05;;;;;;;;;;5053355;28;20036;-85
2022/11/29 09:11:18;;;;;;;23.00;11.95;;;;;;;;;;5041465;28;20084;-85
2022/11/29 09:13:45;;;;;;;21.92;11.00;;;;;;;;;;5041679;28;20067;-85
2022/11/29 09:16:12;;;;;;;22.48;12.05;;;;;;;;;;5049395;28;20017;-83
2022/11/29 09:18:39;;;;;;;25.40;12.98;;;;;;;;;;5061177;28;20005;-84
2022/11/29 09:21:06;;;;;;;22.88;11.38;;;;;;;;;;5070750;28;20029;-83
2022/11/29 09:23:32;;;;;;;26.45;12.77;;;;;;;;;;5062031;28;20051;-84
2022/11/29 09:25:58;;;;;;;24.85;11.90;;;;;;;;;;5058937;28;20029;-84
2022/11/29 09:28:24;;;;;;;25.23;12.25;;;;;;;;;;5061209;28;20480;-85
2022/11/29 09:30:50;;;;;;;24.73;12.98;;;;;;;;;;5061222;28;20036;-85
2022/11/29 09:33:16;;;;;;;26.33;13.38;;;;;;;;;;5060284;28;20383;-83
2022/11/29 09:35:42;;;;;;;25.08;12.20;;;;;;;;;;5055696;28;20033;-82
2022/11/29 09:38:12;;;;;;;23.52;12.68;;;;;;;;;;5041545;28;20022;-83
2022/11/29 09:40:41;;;;;;;20.33;12.05;;;;;;;;;;5041302;28;20025;-84
2022/11/29 09:43:25;;;;;;;26.23;12.82;;;;;;;;;;5042430;28;20026;-84
2022/11/29 09:45:56;;;;;;;23.60;12.20;;;;;;;;;;5055116;28;20047;-83
2022/11/29 09:48:25;;;;;;;29.98;13.50;;;;;;;;;;5041788;28;20098;-83
2022/11/29 09:50:54;;;;;;;21.55;11.70;;;;;;;;;;5039765;28;20033;-84
2022/11/29 09:53:20;;;;;;;26.48;13.10;;;;;;;;;;5041317;28;20345;-85
2022/11/29 09:55:46;;;;;;;25.73;13.05;;;;;;;;;;5055461;28;20520;-83
2022/11/29 09:58:16;;;;;;;27.77;12.80;;;;;;;;;;5062247;28;20024;-84
2022/11/29 10:00:47;;;;;;;23.98;12.20;;;;;;;;;;5062397;28;20116;-84
2022/11/29 10:03:39;;;;;;;20.95;11.02;;;;;;;;;;5062149;28;20031;-82
2022/11/29 10:06:13;;;;;;;27.20;13.10;;;;;;;;;;5047674;28;20055;-85
2022/11/29 10:08:41;;;;;;;24.23;13.10;;;;;;;;;;5062185;28;20123;-83
2022/11/29 10:11:13;;;;;;;23.30;12.48;;;;;;;;;;5061817;28;20082;-84
2022/11/29 10:13:43;;;;;;;22.73;12.60;;;;;;;;;;5061084;28;20028;-84
2022/11/29 10:16:21;;;;;;;23.88;12.23;;;;;;;;;;5044945;28;20022;-84
2022/11/29 10:19:04;;;;;;;22.58;11.65;;;;;;;;;;5039439;28;20104;-84
2022/11/29 10:21:34;;;;;;;24.63;11.68;;;;;;;;;;5058461;28;20029;-85
2022/11/29 10:24:03;;;;;;;20.92;11.07;;;;;;;;;;5060562;28;20025;-85
2022/11/29 10:26:29;;;;;;;25.95;12.50;;;;;;;;;;5057824;28;20055;-84
2022/11/29 10:28:56;;;;;;;23.45;12.20;;;;;;;;;;5059514;28;20162;-84
2022/11/29 10:31:24;;;;;;;23.63;11.32;;;;;;;;;;5065304;28;20048;-82
2022/11/29 10:33:50;;;;;;;23.48;11.45;;;;;;;;;;5055077;28;20309;-84
2022/11/29 10:36:27;;;;;;;25.20;13.15;;;;;;;;;;5059595;28;20013;-84
2022/11/29 10:38:58;;;;;;;26.48;14.15;;;;;;;;;;5064548;28;20040;-84
2022/11/29 10:41:25;;;;;;;26.05;12.15;;;;;;;;;;5063735;28;20021;-84
2022/11/29 10:43:52;;;;;;;20.98;10.93;;;;;;;;;;5064254;28;20445;-83
2022/11/29 10:46:27;;;;;;;23.85;13.63;;;;;;;;;;5065074;28;20114;-85
2022/11/29 10:48:54;;;;;;;24.63;11.90;;;;;;;;;;5052658;28;20291;-83
2022/11/29 10:51:20;;;;;;;24.85;12.90;;;;;;;;;;5046209;28;20026;-86
2022/11/29 10:53:46;;;;;;;28.23;13.25;;;;;;;;;;5044780;28;20048;-81
2022/11/29 10:56:23;;;;;;;24.15;12.85;;;;;;;;;;5060942;28;20029;-83
2022/11/29 10:59:04;;;;;;;26.33;13.00;;;;;;;;;;5068531;28;20021;-84
2022/11/29 11:01:48;;;;;;;22.60;11.82;;;;;;;;;;5065718;28;20021;-83
2022/11/29 11:04:16;;;;;;;23.17;11.95;;;;;;;;;;5053078;28;20020;-83
2022/11/29 11:06:42;;;;;;;19.98;10.48;;;;;;;;;;5067582;28;20033;-83
2022/11/29 11:09:14;;;;;;;22.27;13.10;;;;;;;;;;5073055;28;20671;-82
2022/11/29 11:11:44;;;;;;;26.70;13.30;;;;;;;;;;5071309;28;20028;-83
2022/11/29 11:14:22;;;;;;;24.88;14.02;;;;;;;;;;5055399;28;20020;-83
2022/11/29 11:16:48;;;;;;;22.52;12.77;;;;;;;;;;5050497;28;20033;-84
2022/11/29 11:19:40;;;;;;;25.55;13.30;;;;;;;;;;5063515;28;20025;-83
2022/11/29 11:22:06;;;;;;;22.90;11.77;;;;;;;;;;5059770;28;20036;-83
2022/11/29 11:24:33;;;;;;;22.00;10.98;;;;;;;;;;5063278;28;20029;-83
2022/11/29 11:27:00;;;;;;;22.45;12.27;;;;;;;;;;5062515;28;20037;-83
2022/11/29 11:29:31;;;;;;;22.73;12.82;;;;;;;;;;5061731;28;20083;-83
2022/11/29 11:31:59;;;;;;;24.63;12.77;;;;;;;;;;5046803;28;20040;-82
2022/11/29 11:34:35;;;;;;;20.95;11.88;;;;;;;;;;5061898;28;20021;-84
2022/11/29 11:37:21;;;;;;;24.23;11.98;;;;;;;;;;5057847;28;20025;-82
2022/11/29 11:39:49;;;;;;;27.02;13.38;;;;;;;;;;5054084;28;20055;-84
2022/11/29 11:42:35;;;;;;;24.75;11.88;;;;;;;;;;5059996;28;20038;-84
2022/11/29 11:45:03;;;;;;;22.70;12.65;;;;;;;;;;5044120;28;20036;-83
2022/11/29 11:47:30;;;;;;;27.40;13.85;;;;;;;;;;5044157;28;20037;-82
2022/11/29 11:50:00;;;;;;;20.45;12.80;;;;;;;;;;5055948;28;20490;-81
2022/11/29 11:52:39;;;;;;;23.42;12.80;;;;;;;;;;5062206;28;20032;-82
2022/11/29 11:55:07;;;;;;;26.45;13.07;;;;;;;;;;5061291;28;21172;-83
2022/11/29 11:57:33;;;;;;;27.40;12.75;;;;;;;;;;5063736;28;20025;-83
2022/11/29 12:00:00;;;;;;;23.00;12.70;;;;;;;;;;5056269;28;20026;-83
2022/11/29 12:02:26;;;;;;;23.75;13.25;;;;;;;;;;5043142;28;20049;-82
2022/11/29 12:04:53;;;;;;;24.83;13.00;;;;;;;;;;5044481;28;20484;-84
2022/11/29 12:07:24;;;;;;;25.00;12.68;;;;;;;;;;5063699;28;20472;-83
2022/11/29 12:10:00;;;;;;;22.17;12.70;;;;;;;;;;5063542;28;20021;-83
2022/11/29 12:12:31;;;;;;;23.38;12.52;;;;;;;;;;5064209;28;20218;-83
2022/11/29 12:15:06;;;;;;;20.90;12.07;;;;;;;;;;5053721;28;20037;-83
2022/11/29 12:17:38;;;;;;;24.00;12.50;;;;;;;;;;5052950;28;20026;-82
2022/11/29 12:20:11;;;;;;;25.13;12.65;;;;;;;;;;5048632;28;20024;-83
2022/11/29 12:22:40;;;;;;;22.13;11.27;;;;;;;;;;5045031;28;20025;-83
2022/11/29 12:25:11;;;;;;;24.85;13.15;;;;;;;;;;5050122;28;20017;-84
2022/11/29 12:27:37;;;;;;;23.05;13.23;;;;;;;;;;5056229;28;20033;-83
2022/11/29 12:30:05;;;;;;;23.55;12.40;;;;;;;;;;5046737;28;20058;-84
2022/11/29 12:32:44;;;;;;;22.40;12.40;;;;;;;;;;5053684;28;20052;-82
2022/11/29 12:35:29;;;;;;;21.35;10.95;;;;;;;;;;5054290;28;20064;-83
2022/11/29 12:38:04;;;;;;;21.33;10.50;;;;;;;;;;5050949;28;20055;-84
2022/11/29 12:40:43;;;;;;;22.65;12.30;;;;;;;;;;5044032;28;20038;-83
2022/11/29 12:43:28;;;;;;;21.73;11.77;;;;;;;;;;5049997;28;20021;-82
2022/11/29 12:45:57;;;;;;;22.17;11.50;;;;;;;;;;5054822;28;20038;-82
2022/11/29 12:48:39;;;;;;;27.75;12.88;;;;;;;;;;5043725;28;20025;-84
2022/11/29 12:51:11;;;;;;;21.98;10.82;;;;;;;;;;5043512;28;20082;-82
2022/11/29 12:53:40;;;;;;;23.98;11.05;;;;;;;;;;5043262;28;20399;-82
2022/11/29 12:56:06;;;;;;;25.40;12.75;;;;;;;;;;5054726;28;20032;-83
2022/11/29 12:58:51;;;;;;;20.98;12.15;;;;;;;;;;5050378;28;20022;-84
2022/11/29 13:01:17;;;;;;;22.75;11.90;;;;;;;;;;5044999;28;20025;-82
2022/11/29 13:03:46;;;;;;;25.70;11.75;;;;;;;;;;5041622;28;20116;-83
2022/11/29 13:06:15;;;;;;;23.02;11.73;;;;;;;;;;5050318;28;20036;-84
2022/11/29 13:08:59;;;;;;;23.02;11.82;;;;;;;;;;5049202;28;20064;-81
2022/11/29 13:11:28;;;;;;;24.00;12.13;;;;;;;;;;5044013;28;20511;-82
2022/11/29 13:13:59;;;;;;;23.38;12.07;;;;;;;;;;5058104;28;20041;-82
2022/11/29 13:16:25;;;;;;;18.83;11.27;;;;;;;;;;5056830;28;20048;-81
2022/11/29 13:19:01;;;;;;;20.48;11.73;;;;;;;;;;5063241;28;20025;-82
2022/11/29 13:21:40;;;;;;;24.23;11.05;;;;;;;;;;5079566;28;20437;-84
2022/11/29 13:24:09;;;;;;;25.98;12.30;;;;;;;;;;5081608;28;20120;-82
2022/11/29 13:26:35;;;;;;;26.30;12.23;;;;;;;;;;5065336;28;20025;-82
2022/11/29 13:29:03;;;;;;;25.15;12.70;;;;;;;;;;5049317;28;20040;-81
2022/11/29 13:31:29;;;;;;;24.00;12.73;;;;;;;;;;5048414;28;20597;-82
2022/11/29 13:34:05;;;;;;;21.20;11.35;;;;;;;;;;5082951;28;20047;-82
2022/11/29 13:36:31;;;;;;;21.88;11.40;;;;;;;;;;5074055;28;20021;-81
2022/11/29 13:39:05;;;;;;;23.38;11.43;;;;;;;;;;5061451;28;20021;-82
2022/11/29 13:41:37;;;;;;;24.23;11.65;;;;;;;;;;5058523;28;20034;-82
2022/11/29 13:44:16;;;;;;;19.63;10.63;;;;;;;;;;5054024;28;20087;-83
2022/11/29 13:46:42;;;;;;;20.35;10.35;;;;;;;;;;5072443;28;20076;-82
2022/11/29 13:49:19;;;;;;;24.17;10.57;;;;;;;;;;5064612;28;20021;-84
2022/11/29 13:51:46;;;;;;;23.15;11.05;;;;;;;;;;5063185;28;20471;-82
2022/11/29 13:54:27;;;;;;;25.65;13.00;;;;;;;;;;5062459;28;20024;-82
2022/11/29 13:57:07;;;;;;;21.52;10.88;;;;;;;;;;5052612;28;20033;-83
2022/11/29 13:59:35;;;;;;;26.50;11.85;;;;;;;;;;5059664;28;20375;-82
2022/11/29 14:02:02;;;;;;;26.05;12.50;;;;;;;;;;5062081;28;20060;-82
2022/11/29 14:04:28;;;;;;;27.90;13.70;;;;;;;;;;5062301;28;20029;-82
2022/11/29 14:07:20;;;;;;;27.40;12.48;;;;;;;;;;5059506;28;20028;-83
2022/11/29 14:09:46;;;;;;;22.30;11.35;;;;;;;;;;5053382;28;20048;-83
2022/11/29 14:12:27;;;;;;;27.33;13.68;;;;;;;;;;5041895;28;20021;-81
2022/11/29 14:14:56;;;;;;;25.58;12.60;;;;;;;;;;5043186;28;20044;-83
2022/11/29 14:17:33;;;;;;;27.77;13.23;;;;;;;;;;5057254;28;20017;-83
2022/11/29 14:20:22;;;;;;;26.10;12.40;;;;;;;;;;5061459;28;20092;-82
2022/11/29 14:23:03;;;;;;;28.58;13.50;;;;;;;;;;5082288;28;20025;-83
2022/11/29 14:25:30;;;;;;;29.92;13.60;;;;;;;;;;5061322;28;20121;-82
2022/11/29 14:27:59;;;;;;;27.15;12.45;;;;;;;;;;5041434;28;20036;-83
2022/11/29 14:30:32;;;;;;;28.63;13.70;;;;;;;;;;5058578;28;20036;-81
2022/11/29 14:33:03;;;;;;;29.88;13.82;;;;;;;;;;5061871;28;20021;-82
2022/11/29 14:35:32;;;;;;;25.52;13.10;;;;;;;;;;5060906;28;20017;-83
2022/11/29 14:38:04;;;;;;;28.00;13.27;;;;;;;;;;5062485;28;20025;-84
2022/11/29 14:40:42;;;;;;;26.88;13.30;;;;;;;;;;5044468;28;20037;-83
2022/11/29 14:43:16;;;;;;;25.00;12.52;;;;;;;;;;5040463;28;20083;-82
2022/11/29 14:45:42;;;;;;;25.25;12.23;;;;;;;;;;5043287;28;20064;-82